createdAt,value
2018-01-23T00:00:59.711Z,33.10
2018-01-23T00:01:59.720Z,30.60
2018-01-23T00:02:59.734Z,31.60
2018-01-23T00:03:59.746Z,28.70
2018-01-23T00:04:59.758Z,34.00
2018-01-23T00:05:59.782Z,34.10
2018-01-23T00:06:59.786Z,28.60
2018-01-23T00:07:59.851Z,34.00
2018-01-23T00:08:59.813Z,32.70
2018-01-23T00:09:59.826Z,27.90
2018-01-23T00:10:59.986Z,33.70
2018-01-23T00:11:59.852Z,37.80
2018-01-23T00:12:59.861Z,35.00
2018-01-23T00:13:59.911Z,30.90
2018-01-23T00:14:59.891Z,30.30
2018-01-23T00:15:59.898Z,34.40
2018-01-23T00:16:59.916Z,34.80
2018-01-23T00:17:59.925Z,31.20
2018-01-23T00:18:59.938Z,36.80
2018-01-23T00:19:59.951Z,36.70
2018-01-23T00:20:59.965Z,30.70
2018-01-23T00:21:59.975Z,29.80
2018-01-23T00:22:59.993Z,32.20
2018-01-23T00:24:00.001Z,35.60
2018-01-23T00:25:00.017Z,26.10
2018-01-23T00:26:00.029Z,32.10
2018-01-23T00:27:00.044Z,33.00
2018-01-23T00:28:00.067Z,29.30
2018-01-23T00:29:00.135Z,33.10
2018-01-23T00:30:00.081Z,32.70
2018-01-23T00:31:00.090Z,32.60
2018-01-23T00:32:00.104Z,30.20
2018-01-23T00:33:00.113Z,26.40
2018-01-23T00:34:00.127Z,30.10
2018-01-23T00:35:00.295Z,28.80
2018-01-23T00:36:00.153Z,33.10
2018-01-23T00:37:00.168Z,31.30
2018-01-23T00:38:00.183Z,36.70
2018-01-23T00:39:00.192Z,29.70
2018-01-23T00:40:00.205Z,32.90
2018-01-23T00:41:00.369Z,31.70
2018-01-23T00:42:00.241Z,30.10
2018-01-23T00:43:00.242Z,28.70
2018-01-23T00:44:00.257Z,26.40
2018-01-23T00:45:00.268Z,27.50
2018-01-23T00:46:00.280Z,31.60
2018-01-23T00:47:00.297Z,33.90
2018-01-23T00:48:00.341Z,29.80
2018-01-23T00:49:00.439Z,30.80
2018-01-23T00:50:00.333Z,31.80
2018-01-23T00:51:00.345Z,26.90
2018-01-23T00:52:00.360Z,31.20
2018-01-23T00:53:00.370Z,29.20
2018-01-23T00:54:00.392Z,30.40
2018-01-23T00:55:00.396Z,30.40
2018-01-23T00:56:00.408Z,26.50
2018-01-23T00:57:00.420Z,25.90
2018-01-23T00:58:00.476Z,28.70
2018-01-23T00:59:00.456Z,28.20
2018-01-23T01:00:00.462Z,30.20
2018-01-23T01:01:00.474Z,30.50
2018-01-23T01:02:00.484Z,27.40
2018-01-23T01:03:00.497Z,28.50
2018-01-23T01:04:00.512Z,27.70
2018-01-23T01:05:00.530Z,27.10
2018-01-23T01:06:00.537Z,31.20
2018-01-23T01:07:00.551Z,25.90
2018-01-23T01:08:00.562Z,28.00
2018-01-23T01:09:00.586Z,31.60
2018-01-23T01:10:00.591Z,28.50
2018-01-23T01:11:00.600Z,28.30
2018-01-23T01:12:00.630Z,29.40
2018-01-23T01:13:00.627Z,29.50
2018-01-23T01:14:00.640Z,28.30
2018-01-23T01:15:00.807Z,27.60
2018-01-23T01:16:00.693Z,29.30
2018-01-23T01:17:00.677Z,31.80
2018-01-23T01:18:00.690Z,31.40
2018-01-23T01:19:00.752Z,29.90
2018-01-23T01:20:00.733Z,27.90
2018-01-23T01:21:00.737Z,29.40
2018-01-23T01:22:00.741Z,30.00
2018-01-23T01:23:00.753Z,25.00
2018-01-23T01:24:00.768Z,28.70
2018-01-23T01:25:00.785Z,31.20
2018-01-23T01:26:00.943Z,29.30
2018-01-23T01:27:00.807Z,30.20
2018-01-23T01:28:00.818Z,27.60
2018-01-23T01:29:00.830Z,24.00
2018-01-23T01:30:00.844Z,25.30
2018-01-23T01:31:00.861Z,28.70
2018-01-23T01:32:01.019Z,28.50
2018-01-23T01:33:00.883Z,28.90
2018-01-23T01:34:00.902Z,30.80
2018-01-23T01:35:00.907Z,29.50
2018-01-23T01:36:00.923Z,28.40
2018-01-23T01:37:00.933Z,30.80
2018-01-23T01:38:00.947Z,30.20
2018-01-23T01:39:00.961Z,33.80
2018-01-23T01:40:00.972Z,27.70
2018-01-23T01:41:00.983Z,25.80
2018-01-23T01:42:00.998Z,31.00
2018-01-23T01:43:01.013Z,28.20
2018-01-23T01:44:01.186Z,23.10
2018-01-23T01:45:01.036Z,31.60
2018-01-23T01:46:01.052Z,34.90
2018-01-23T01:47:01.062Z,27.40
2018-01-23T01:48:01.075Z,31.40
2018-01-23T01:49:01.088Z,29.90
2018-01-23T01:50:01.252Z,27.60
2018-01-23T01:51:01.135Z,33.90
2018-01-23T01:52:01.278Z,32.30
2018-01-23T01:53:01.138Z,30.80
2018-01-23T01:54:01.151Z,33.50
2018-01-23T01:55:01.167Z,33.30
2018-01-23T01:56:01.178Z,30.20
2018-01-23T01:57:01.191Z,32.20
2018-01-23T01:58:01.526Z,30.40
2018-01-23T01:59:01.568Z,32.20
2018-01-23T02:00:01.230Z,31.60
2018-01-23T02:01:01.242Z,31.70
2018-01-23T02:02:01.255Z,30.60
2018-01-23T02:03:01.418Z,28.10
2018-01-23T02:04:01.284Z,29.60
2018-01-23T02:05:01.303Z,29.50
2018-01-23T02:06:01.312Z,27.90
2018-01-23T02:07:01.330Z,33.50
2018-01-23T02:08:01.336Z,28.60
2018-01-23T02:09:01.347Z,34.10
2018-01-23T02:10:01.359Z,28.40
2018-01-23T02:11:01.376Z,32.20
2018-01-23T02:12:01.535Z,34.00
2018-01-23T02:13:01.412Z,28.90
2018-01-23T02:14:01.413Z,30.90
2018-01-23T02:15:01.438Z,31.80
2018-01-23T02:16:01.437Z,30.20
2018-01-23T02:17:01.450Z,28.70
2018-01-23T02:18:01.522Z,34.20
2018-01-23T02:19:01.477Z,28.90
2018-01-23T02:20:01.488Z,32.30
2018-01-23T02:21:01.556Z,29.20
2018-01-23T02:22:01.525Z,29.50
2018-01-23T02:23:01.529Z,29.50
2018-01-23T02:24:01.541Z,34.00
2018-01-23T02:25:01.554Z,30.00
2018-01-23T02:26:01.566Z,32.80
2018-01-23T02:27:01.583Z,27.70
2018-01-23T02:28:01.595Z,30.40
2018-01-23T02:29:01.607Z,27.30
2018-01-23T02:30:01.619Z,30.10
2018-01-23T02:31:01.633Z,28.40
2018-01-23T02:32:01.647Z,24.60
2018-01-23T02:33:01.668Z,26.50
2018-01-23T02:34:01.672Z,33.00
2018-01-23T02:35:01.685Z,29.80
2018-01-23T02:36:01.700Z,30.80
2018-01-23T02:38:01.727Z,29.90
2018-01-23T02:39:01.738Z,25.80
2018-01-23T02:40:01.751Z,25.40
2018-01-23T02:41:01.917Z,27.00
2018-01-23T02:42:01.777Z,29.80
2018-01-23T02:43:01.793Z,35.20
2018-01-23T02:44:01.803Z,28.70
2018-01-23T02:45:01.816Z,32.00
2018-01-23T02:46:01.830Z,28.80
2018-01-23T02:47:01.845Z,34.10
2018-01-23T02:48:01.855Z,27.00
2018-01-23T02:49:01.868Z,26.30
2018-01-23T02:50:01.880Z,31.90
2018-01-23T02:51:01.894Z,30.40
2018-01-23T02:52:01.908Z,31.60
2018-01-23T02:53:01.926Z,32.20
2018-01-23T02:54:01.935Z,27.40
2018-01-23T02:55:01.949Z,29.30
2018-01-23T02:56:01.966Z,35.50
2018-01-23T02:57:01.973Z,34.10
2018-01-23T02:58:01.990Z,37.10
2018-01-23T02:59:01.999Z,27.00
2018-01-23T03:00:02.018Z,39.20
2018-01-23T03:01:02.025Z,33.80
2018-01-23T03:02:02.038Z,27.00
2018-01-23T03:03:02.051Z,34.30
2018-01-23T03:04:02.063Z,33.90
2018-01-23T03:05:02.079Z,29.60
2018-01-23T03:06:02.094Z,25.90
2018-01-23T03:07:02.154Z,36.80
2018-01-23T03:08:02.299Z,27.30
2018-01-23T03:09:02.130Z,33.30
2018-01-23T03:10:02.141Z,31.00
2018-01-23T03:11:02.155Z,29.50
2018-01-23T03:12:02.170Z,27.80
2018-01-23T03:13:02.180Z,32.30
2018-01-23T03:14:02.194Z,30.30
2018-01-23T03:15:02.208Z,26.40
2018-01-23T03:16:02.232Z,33.90
2018-01-23T03:17:02.237Z,29.40
2018-01-23T03:18:02.246Z,30.90
2018-01-23T03:19:02.258Z,30.60
2018-01-23T03:20:02.273Z,33.70
2018-01-23T03:21:02.286Z,32.70
2018-01-23T03:22:02.304Z,33.00
2018-01-23T03:23:02.315Z,30.70
2018-01-23T03:24:02.328Z,28.20
2018-01-23T03:25:02.388Z,29.40
2018-01-23T03:26:02.399Z,35.20
2018-01-23T03:27:02.372Z,34.00
2018-01-23T03:28:02.388Z,31.90
2018-01-23T03:29:02.391Z,31.90
2018-01-23T03:30:02.404Z,30.50
2018-01-23T03:31:02.417Z,29.20
2018-01-23T03:32:02.428Z,30.90
2018-01-23T03:33:02.441Z,30.50
2018-01-23T03:34:02.454Z,28.70
2018-01-23T03:35:02.468Z,32.00
2018-01-23T03:36:02.482Z,30.40
2018-01-23T03:37:02.498Z,29.80
2018-01-23T03:38:02.510Z,28.60
2018-01-23T03:39:02.519Z,26.90
2018-01-23T03:40:02.548Z,29.40
2018-01-23T03:41:02.546Z,27.90
2018-01-23T03:42:02.561Z,30.90
2018-01-23T03:43:02.788Z,30.30
2018-01-23T03:44:02.585Z,31.20
2018-01-23T03:45:02.602Z,30.40
2018-01-23T03:46:02.613Z,27.50
2018-01-23T03:47:02.624Z,26.40
2018-01-23T03:48:02.637Z,29.60
2018-01-23T03:49:02.651Z,33.10
2018-01-23T03:50:02.663Z,24.30
2018-01-23T03:51:02.676Z,25.60
2018-01-23T03:52:02.689Z,31.30
2018-01-23T03:53:02.702Z,25.40
2018-01-23T03:54:02.866Z,27.60
2018-01-23T03:55:02.729Z,31.50
2018-01-23T03:56:02.744Z,29.90
2018-01-23T03:57:02.752Z,32.70
2018-01-23T03:58:02.769Z,28.90
2018-01-23T03:59:02.791Z,26.20
2018-01-23T04:00:02.793Z,27.90
2018-01-23T04:01:02.805Z,27.10
2018-01-23T04:02:02.822Z,31.60
2018-01-23T04:03:02.833Z,32.00
2018-01-23T04:04:02.874Z,28.80
2018-01-23T04:05:02.858Z,27.60
2018-01-23T04:06:02.873Z,28.40
2018-01-23T04:07:02.883Z,28.90
2018-01-23T04:08:02.902Z,26.10
2018-01-23T04:09:03.062Z,32.70
2018-01-23T04:10:02.926Z,30.50
2018-01-23T04:11:03.090Z,28.00
2018-01-23T04:12:02.956Z,32.30
2018-01-23T04:13:02.963Z,24.30
2018-01-23T04:14:02.987Z,26.80
2018-01-23T04:15:02.992Z,27.80
2018-01-23T04:16:03.005Z,29.80
2018-01-23T04:17:03.164Z,28.50
2018-01-23T04:18:03.028Z,28.40
2018-01-23T04:19:03.042Z,30.00
2018-01-23T04:20:03.056Z,24.60
2018-01-23T04:21:03.067Z,32.20
2018-01-23T04:22:03.080Z,35.50
2018-01-23T04:23:03.197Z,31.30
2018-01-23T04:24:03.106Z,27.50
2018-01-23T04:25:03.121Z,30.40
2018-01-23T04:26:03.132Z,29.90
2018-01-23T04:27:03.298Z,32.70
2018-01-23T04:28:03.160Z,28.30
2018-01-23T04:29:03.172Z,28.80
2018-01-23T04:30:03.186Z,27.00
2018-01-23T04:31:03.198Z,27.40
2018-01-23T04:32:03.210Z,29.60
2018-01-23T04:33:03.288Z,31.40
2018-01-23T04:34:03.237Z,28.80
2018-01-23T04:35:03.250Z,28.20
2018-01-23T04:36:03.266Z,28.30
2018-01-23T04:37:03.276Z,30.80
2018-01-23T04:38:03.288Z,28.30
2018-01-23T04:39:03.303Z,28.20
2018-01-23T04:40:03.315Z,31.80
2018-01-23T04:41:03.328Z,28.40
2018-01-23T04:42:03.342Z,29.40
2018-01-23T04:43:03.354Z,29.70
2018-01-23T04:44:03.518Z,28.20
2018-01-23T04:45:03.382Z,26.20
2018-01-23T04:46:03.430Z,24.20
2018-01-23T04:47:03.406Z,28.10
2018-01-23T04:48:03.569Z,29.50
2018-01-23T04:49:03.433Z,29.20
2018-01-23T04:50:03.449Z,29.80
2018-01-23T04:51:03.610Z,33.50
2018-01-23T04:52:03.470Z,27.20
2018-01-23T04:53:03.484Z,28.00
2018-01-23T04:54:03.497Z,27.20
2018-01-23T04:55:03.510Z,26.70
2018-01-23T04:56:03.524Z,32.50
2018-01-23T04:57:03.536Z,28.80
2018-01-23T04:58:03.551Z,30.70
2018-01-23T04:59:03.563Z,27.80
2018-01-23T05:00:03.574Z,34.10
2018-01-23T05:01:03.586Z,28.70
2018-01-23T05:02:03.600Z,29.30
2018-01-23T05:03:03.612Z,27.90
2018-01-23T05:04:03.633Z,26.70
2018-01-23T05:05:03.639Z,23.50
2018-01-23T05:06:03.898Z,34.30
2018-01-23T05:07:03.770Z,25.80
2018-01-23T05:08:03.678Z,29.60
2018-01-23T05:09:03.690Z,24.40
2018-01-23T05:10:03.702Z,31.50
2018-01-23T05:11:03.716Z,27.50
2018-01-23T05:12:03.728Z,29.00
2018-01-23T05:13:03.742Z,27.10
2018-01-23T05:14:03.753Z,31.90
2018-01-23T05:15:03.764Z,30.50
2018-01-23T05:16:03.780Z,25.80
2018-01-23T05:17:03.816Z,29.40
2018-01-23T05:18:03.961Z,30.20
2018-01-23T05:19:03.818Z,34.30
2018-01-23T05:20:03.830Z,31.90
2018-01-23T05:21:03.846Z,29.90
2018-01-23T05:22:03.854Z,30.60
2018-01-23T05:23:03.877Z,25.70
2018-01-23T05:24:03.882Z,26.80
2018-01-23T05:25:03.894Z,30.80
2018-01-23T05:26:03.907Z,27.50
2018-01-23T05:27:03.925Z,29.60
2018-01-23T05:28:03.938Z,33.00
2018-01-23T05:29:03.946Z,27.50
2018-01-23T05:30:03.958Z,29.20
2018-01-23T05:31:03.972Z,29.70
2018-01-23T05:32:04.002Z,29.80
2018-01-23T05:33:04.149Z,33.40
2018-01-23T05:34:04.013Z,36.10
2018-01-23T05:35:04.026Z,34.20
2018-01-23T05:36:04.192Z,35.90
2018-01-23T05:37:04.052Z,34.40
2018-01-23T05:38:04.066Z,28.90
2018-01-23T05:39:04.389Z,30.30
2018-01-23T05:40:04.397Z,37.50
2018-01-23T05:41:04.101Z,34.00
2018-01-23T05:42:04.267Z,34.80
2018-01-23T05:43:04.128Z,30.80
2018-01-23T05:44:04.297Z,37.60
2018-01-23T05:45:04.153Z,31.10
2018-01-23T05:46:04.178Z,34.60
2018-01-23T05:47:04.329Z,29.30
2018-01-23T05:48:04.221Z,33.60
2018-01-23T05:49:04.207Z,32.30
2018-01-23T05:50:04.220Z,33.30
2018-01-23T05:51:04.227Z,35.40
2018-01-23T05:52:04.241Z,34.20
2018-01-23T05:53:04.253Z,38.60
2018-01-23T05:54:04.319Z,35.30
2018-01-23T05:55:04.285Z,32.50
2018-01-23T05:56:04.444Z,35.80
2018-01-23T05:57:04.306Z,31.30
2018-01-23T05:58:04.320Z,38.20
2018-01-23T05:59:04.338Z,37.50
2018-01-23T06:00:04.348Z,37.80
2018-01-23T06:01:04.357Z,32.00
2018-01-23T06:02:04.373Z,33.30
2018-01-23T06:03:04.383Z,32.00
2018-01-23T06:04:04.550Z,31.60
2018-01-23T06:05:04.411Z,32.90
2018-01-23T06:06:04.425Z,30.70
2018-01-23T06:07:04.436Z,35.00
2018-01-23T06:08:04.550Z,34.30
2018-01-23T06:09:04.474Z,35.10
2018-01-23T06:10:04.481Z,31.60
2018-01-23T06:11:04.487Z,31.50
2018-01-23T06:12:04.521Z,33.80
2018-01-23T06:13:04.512Z,38.60
2018-01-23T06:14:04.527Z,36.70
2018-01-23T06:15:04.539Z,32.30
2018-01-23T06:16:04.553Z,37.20
2018-01-23T06:17:04.564Z,36.00
2018-01-23T06:18:04.587Z,32.70
2018-01-23T06:19:04.590Z,34.60
2018-01-23T06:20:04.624Z,34.20
2018-01-23T06:21:04.616Z,37.80
2018-01-23T06:22:04.630Z,32.40
2018-01-23T06:23:04.639Z,30.30
2018-01-23T06:24:04.697Z,34.10
2018-01-23T06:25:04.716Z,33.10
2018-01-23T06:26:04.682Z,36.10
2018-01-23T06:27:04.845Z,37.60
2018-01-23T06:28:04.706Z,33.90
2018-01-23T06:29:04.723Z,36.40
2018-01-23T06:30:04.734Z,36.20
2018-01-23T06:31:04.745Z,34.30
2018-01-23T06:32:04.757Z,37.30
2018-01-23T06:33:04.770Z,33.30
2018-01-23T06:34:04.787Z,36.20
2018-01-23T06:35:04.796Z,36.10
2018-01-23T06:36:04.808Z,32.30
2018-01-23T06:37:04.845Z,35.40
2018-01-23T06:38:04.837Z,32.90
2018-01-23T06:39:04.848Z,38.40
2018-01-23T06:40:04.861Z,34.70
2018-01-23T06:41:04.872Z,36.10
2018-01-23T06:42:04.888Z,35.60
2018-01-23T06:43:04.900Z,36.60
2018-01-23T06:44:04.943Z,33.50
2018-01-23T06:45:04.927Z,32.80
2018-01-23T06:46:04.947Z,37.30
2018-01-23T06:47:04.953Z,34.00
2018-01-23T06:48:05.213Z,34.90
2018-01-23T06:49:04.977Z,38.80
2018-01-23T06:50:05.195Z,33.60
2018-01-23T06:51:05.009Z,40.20
2018-01-23T06:52:05.022Z,37.10
2018-01-23T06:53:05.034Z,37.00
2018-01-23T06:54:05.042Z,36.20
2018-01-23T06:55:05.071Z,39.30
2018-01-23T06:56:05.080Z,34.60
2018-01-23T06:57:05.513Z,34.90
2018-01-23T06:58:05.098Z,30.10
2018-01-23T06:59:05.108Z,36.40
2018-01-23T07:00:05.166Z,30.70
2018-01-23T07:01:05.138Z,35.60
2018-01-23T07:02:05.148Z,39.40
2018-01-23T07:03:05.159Z,36.00
2018-01-23T07:04:05.168Z,33.10
2018-01-23T07:05:05.190Z,36.70
2018-01-23T07:06:05.193Z,34.30
2018-01-23T07:07:05.356Z,35.00
2018-01-23T07:08:05.221Z,31.60
2018-01-23T07:09:05.233Z,36.80
2018-01-23T07:10:05.245Z,35.00
2018-01-23T07:11:05.257Z,34.10
2018-01-23T07:12:05.279Z,36.50
2018-01-23T07:13:05.284Z,36.90
2018-01-23T07:14:05.350Z,34.00
2018-01-23T07:15:05.310Z,36.40
2018-01-23T07:16:05.323Z,35.30
2018-01-23T07:17:05.335Z,35.70
2018-01-23T07:18:05.382Z,30.00
2018-01-23T07:19:05.364Z,32.50
2018-01-23T07:20:05.526Z,34.60
2018-01-23T07:21:05.441Z,39.80
2018-01-23T07:22:05.403Z,35.10
2018-01-23T07:23:05.416Z,31.70
2018-01-23T07:24:05.429Z,35.30
2018-01-23T07:26:05.455Z,34.20
2018-01-23T07:27:05.468Z,36.60
2018-01-23T07:28:05.481Z,34.30
2018-01-23T07:29:05.493Z,40.90
2018-01-23T07:30:05.910Z,32.00
2018-01-23T07:31:05.526Z,32.90
2018-01-23T07:32:05.539Z,36.10
2018-01-23T07:33:05.546Z,33.10
2018-01-23T07:34:05.559Z,39.70
2018-01-23T07:35:05.575Z,39.60
2018-01-23T07:36:06.336Z,33.10
2018-01-23T07:37:05.598Z,39.30
2018-01-23T07:38:05.614Z,34.00
2018-01-23T07:39:05.623Z,33.30
2018-01-23T07:40:05.638Z,33.40
2018-01-23T07:41:05.649Z,36.30
2018-01-23T07:42:05.665Z,38.40
2018-01-23T07:43:05.678Z,34.90
2018-01-23T07:44:06.646Z,32.70
2018-01-23T07:45:05.702Z,34.20
2018-01-23T07:46:05.716Z,31.50
2018-01-23T07:47:05.730Z,35.50
2018-01-23T07:48:05.744Z,32.20
2018-01-23T07:49:05.758Z,31.10
2018-01-23T07:50:05.770Z,34.00
2018-01-23T07:51:05.788Z,31.40
2018-01-23T07:52:05.795Z,35.90
2018-01-23T07:53:05.807Z,35.90
2018-01-23T07:54:05.825Z,32.50
2018-01-23T07:55:05.859Z,35.50
2018-01-23T07:56:05.883Z,36.40
2018-01-23T07:57:05.860Z,35.70
2018-01-23T07:58:05.875Z,37.00
2018-01-23T07:59:05.891Z,36.50
2018-01-23T08:00:05.899Z,35.70
2018-01-23T08:01:05.917Z,32.80
2018-01-23T08:02:05.929Z,33.80
2018-01-23T08:03:05.940Z,32.00
2018-01-23T08:04:06.104Z,34.50
2018-01-23T08:05:05.965Z,37.50
2018-01-23T08:06:06.228Z,33.60
2018-01-23T08:07:05.996Z,32.50
2018-01-23T08:08:06.007Z,34.30
2018-01-23T08:09:06.020Z,33.50
2018-01-23T08:10:06.036Z,31.20
2018-01-23T08:11:06.045Z,36.40
2018-01-23T08:12:06.059Z,29.30
2018-01-23T08:13:06.072Z,30.50
2018-01-23T08:14:06.085Z,29.50
2018-01-23T08:15:06.850Z,33.10
2018-01-23T08:16:07.640Z,36.20
2018-01-23T08:17:06.127Z,34.40
2018-01-23T08:18:06.149Z,29.10
2018-01-23T08:19:06.156Z,32.60
2018-01-23T08:20:06.167Z,32.30
2018-01-23T08:21:06.179Z,29.20
2018-01-23T08:22:06.193Z,31.20
2018-01-23T08:23:06.227Z,33.40
2018-01-23T08:24:06.222Z,30.10
2018-01-23T08:25:06.232Z,29.70
2018-01-23T08:26:06.257Z,31.20
2018-01-23T08:27:06.263Z,32.30
2018-01-23T08:28:06.272Z,31.60
2018-01-23T08:29:06.291Z,28.40
2018-01-23T08:30:06.471Z,30.10
2018-01-23T08:31:06.324Z,30.40
2018-01-23T08:32:06.329Z,33.80
2018-01-23T08:33:06.353Z,28.20
2018-01-23T08:34:06.356Z,28.70
2018-01-23T08:35:06.375Z,31.90
2018-01-23T08:36:06.379Z,29.40
2018-01-23T08:37:06.401Z,33.90
2018-01-23T08:38:07.159Z,31.30
2018-01-23T08:39:06.425Z,31.40
2018-01-23T08:40:06.432Z,28.00
2018-01-23T08:41:06.452Z,33.00
2018-01-23T08:42:06.462Z,28.00
2018-01-23T08:43:06.472Z,32.10
2018-01-23T08:44:06.493Z,26.90
2018-01-23T08:45:06.516Z,29.30
2018-01-23T08:46:06.513Z,29.80
2018-01-23T08:47:06.526Z,35.50
2018-01-23T08:48:06.538Z,26.40
2018-01-23T08:49:06.713Z,31.30
2018-01-23T08:50:06.567Z,31.70
2018-01-23T08:51:06.581Z,27.00
2018-01-23T08:52:06.615Z,30.60
2018-01-23T08:53:06.606Z,32.70
2018-01-23T08:54:06.624Z,29.80
2018-01-23T08:55:06.632Z,30.90
2018-01-23T08:56:06.648Z,28.60
2018-01-23T08:57:06.662Z,28.00
2018-01-23T08:58:06.674Z,27.10
2018-01-23T08:59:06.701Z,29.50
2018-01-23T09:00:06.809Z,26.80
2018-01-23T09:01:06.716Z,26.80
2018-01-23T09:02:06.748Z,29.30
2018-01-23T09:03:06.749Z,27.00
2018-01-23T09:04:06.760Z,31.00
2018-01-23T09:05:06.772Z,28.00
2018-01-23T09:06:06.781Z,30.80
2018-01-23T09:07:06.796Z,29.90
2018-01-23T09:08:06.958Z,27.60
2018-01-23T09:09:06.975Z,25.80
2018-01-23T09:10:06.839Z,31.70
2018-01-23T09:11:06.849Z,24.80
2018-01-23T09:12:06.862Z,27.70
2018-01-23T09:13:06.875Z,29.60
2018-01-23T09:14:06.902Z,29.90
2018-01-23T09:15:06.903Z,30.10
2018-01-23T09:16:06.968Z,28.80
2018-01-23T09:17:06.933Z,23.10
2018-01-23T09:18:06.966Z,30.90
2018-01-23T09:19:06.959Z,32.00
2018-01-23T09:20:06.972Z,32.30
2018-01-23T09:21:06.986Z,26.20
2018-01-23T09:22:07.000Z,25.70
2018-01-23T09:23:07.010Z,24.70
2018-01-23T09:24:07.023Z,30.80
2018-01-23T09:25:07.035Z,25.10
2018-01-23T09:26:07.052Z,26.80
2018-01-23T09:27:07.065Z,26.30
2018-01-23T09:28:07.095Z,30.10
2018-01-23T09:29:07.202Z,25.60
2018-01-23T09:30:07.106Z,24.20
2018-01-23T09:31:07.122Z,24.90
2018-01-23T09:32:07.137Z,29.50
2018-01-23T09:33:07.149Z,28.00
2018-01-23T09:34:07.173Z,25.80
2018-01-23T09:35:07.330Z,27.20
2018-01-23T09:36:07.193Z,25.60
2018-01-23T09:37:07.203Z,26.00
2018-01-23T09:38:07.217Z,27.50
2018-01-23T09:39:07.227Z,24.10
2018-01-23T09:40:07.254Z,28.20
2018-01-23T09:41:07.256Z,29.30
2018-01-23T09:42:07.418Z,25.30
2018-01-23T09:43:07.284Z,29.90
2018-01-23T09:44:07.296Z,22.30
2018-01-23T09:45:07.389Z,25.20
2018-01-23T09:46:07.323Z,24.80
2018-01-23T09:47:07.337Z,23.10
2018-01-23T09:48:07.352Z,24.90
2018-01-23T09:49:07.365Z,27.80
2018-01-23T09:50:07.384Z,35.20
2018-01-23T09:51:07.445Z,26.80
2018-01-23T09:52:07.400Z,28.40
2018-01-23T09:53:07.412Z,27.80
2018-01-23T09:54:07.429Z,26.30
2018-01-23T09:55:07.442Z,25.30
2018-01-23T09:56:07.570Z,27.50
2018-01-23T09:57:07.467Z,27.80
2018-01-23T09:58:07.486Z,26.00
2018-01-23T09:59:07.662Z,25.90
2018-01-23T10:00:07.512Z,23.50
2018-01-23T10:01:07.526Z,28.10
2018-01-23T10:02:08.440Z,25.00
2018-01-23T10:03:07.553Z,26.30
2018-01-23T10:04:07.574Z,29.30
2018-01-23T10:05:07.589Z,23.50
2018-01-23T10:06:07.593Z,24.40
2018-01-23T10:07:07.609Z,27.20
2018-01-23T10:08:07.619Z,21.70
2018-01-23T10:09:07.783Z,23.80
2018-01-23T10:10:07.647Z,25.80
2018-01-23T10:11:07.668Z,26.00
2018-01-23T10:12:07.676Z,24.70
2018-01-23T10:13:07.744Z,23.80
2018-01-23T10:14:07.703Z,22.10
2018-01-23T10:15:07.718Z,24.30
2018-01-23T10:16:07.880Z,27.50
2018-01-23T10:17:07.743Z,22.20
2018-01-23T10:18:07.757Z,25.40
2018-01-23T10:19:07.771Z,22.40
2018-01-23T10:20:07.786Z,22.10
2018-01-23T10:21:07.799Z,24.20
2018-01-23T10:22:07.814Z,25.80
2018-01-23T10:23:07.979Z,22.70
2018-01-23T10:24:07.842Z,23.40
2018-01-23T10:25:07.853Z,23.30
2018-01-23T10:26:07.870Z,22.20
2018-01-23T10:27:07.885Z,26.80
2018-01-23T10:28:07.906Z,25.00
2018-01-23T10:29:08.027Z,25.20
2018-01-23T10:30:07.925Z,21.60
2018-01-23T10:31:07.939Z,24.50
2018-01-23T10:32:07.950Z,24.40
2018-01-23T10:33:07.967Z,23.50
2018-01-23T10:34:07.982Z,23.20
2018-01-23T10:35:08.009Z,22.30
2018-01-23T10:36:08.014Z,19.70
2018-01-23T10:37:08.020Z,21.00
2018-01-23T10:38:08.036Z,21.10
2018-01-23T10:39:08.059Z,23.80
2018-01-23T10:40:08.062Z,25.70
2018-01-23T10:41:08.077Z,20.90
2018-01-23T10:42:08.241Z,25.50
2018-01-23T10:43:08.104Z,25.40
2018-01-23T10:44:08.118Z,22.60
2018-01-23T10:45:08.131Z,22.80
2018-01-23T10:46:08.153Z,25.60
2018-01-23T10:47:08.161Z,27.50
2018-01-23T10:48:08.174Z,26.20
2018-01-23T10:49:08.188Z,23.60
2018-01-23T10:50:08.203Z,26.00
2018-01-23T10:51:08.216Z,21.40
2018-01-23T10:52:08.230Z,23.90
2018-01-23T10:53:08.244Z,22.40
2018-01-23T10:54:08.256Z,20.60
2018-01-23T10:55:08.277Z,22.20
2018-01-23T10:56:08.289Z,23.80
2018-01-23T10:57:08.448Z,21.80
2018-01-23T10:58:08.313Z,22.00
2018-01-23T10:59:08.327Z,24.80
2018-01-23T11:00:08.343Z,22.30
2018-01-23T11:01:08.354Z,24.60
2018-01-23T11:02:08.369Z,20.40
2018-01-23T11:03:08.383Z,23.70
2018-01-23T11:04:08.401Z,23.90
2018-01-23T11:05:08.560Z,26.10
2018-01-23T11:06:08.424Z,21.20
2018-01-23T11:07:08.443Z,22.00
2018-01-23T11:08:08.466Z,27.80
2018-01-23T11:09:08.465Z,23.80
2018-01-23T11:10:08.485Z,22.20
2018-01-23T11:11:08.645Z,21.80
2018-01-23T11:12:08.512Z,24.30
2018-01-23T11:13:08.545Z,24.50
2018-01-23T11:14:08.653Z,19.70
2018-01-23T11:15:08.556Z,19.30
2018-01-23T11:16:08.630Z,21.10
2018-01-23T11:17:08.579Z,22.70
2018-01-23T11:18:08.743Z,21.30
2018-01-23T11:19:09.165Z,21.70
2018-01-23T11:20:08.622Z,23.40
2018-01-23T11:21:08.785Z,23.40
2018-01-23T11:22:08.650Z,22.80
2018-01-23T11:23:08.708Z,23.40
2018-01-23T11:24:08.680Z,21.20
2018-01-23T11:25:08.693Z,22.50
2018-01-23T11:26:08.706Z,20.60
2018-01-23T11:27:08.871Z,19.80
2018-01-23T11:28:08.734Z,23.20
2018-01-23T11:29:08.957Z,19.60
2018-01-23T11:30:08.762Z,22.50
2018-01-23T11:31:08.778Z,19.80
2018-01-23T11:32:08.793Z,25.80
2018-01-23T11:33:08.817Z,22.60
2018-01-23T11:34:08.818Z,21.20
2018-01-23T11:35:08.835Z,21.60
2018-01-23T11:36:08.848Z,22.20
2018-01-23T11:37:08.863Z,19.40
2018-01-23T11:38:08.877Z,21.50
2018-01-23T11:39:08.894Z,17.10
2018-01-23T11:40:08.911Z,24.00
2018-01-23T11:41:08.924Z,19.20
2018-01-23T11:42:09.095Z,21.90
2018-01-23T11:43:08.947Z,19.50
2018-01-23T11:44:08.962Z,19.30
2018-01-23T11:45:08.973Z,19.20
2018-01-23T11:46:08.988Z,16.30
2018-01-23T11:47:09.007Z,17.20
2018-01-23T11:48:09.019Z,20.70
2018-01-23T11:49:09.038Z,19.60
2018-01-23T11:50:09.047Z,23.30
2018-01-23T11:51:09.232Z,20.60
2018-01-23T11:52:09.076Z,20.70
2018-01-23T11:53:09.145Z,19.50
2018-01-23T11:54:09.105Z,23.20
2018-01-23T11:55:09.117Z,20.20
2018-01-23T11:56:09.137Z,19.70
2018-01-23T11:57:09.297Z,23.70
2018-01-23T11:58:09.160Z,21.50
2018-01-23T11:59:09.179Z,21.90
2018-01-23T12:00:09.189Z,21.30
2018-01-23T12:01:09.205Z,22.70
2018-01-23T12:02:09.217Z,19.60
2018-01-23T12:03:09.232Z,19.50
2018-01-23T12:04:09.252Z,17.60
2018-01-23T12:05:09.265Z,20.10
2018-01-23T12:06:09.287Z,21.00
2018-01-23T12:07:09.310Z,20.50
2018-01-23T12:08:09.394Z,20.00
2018-01-23T12:09:09.330Z,16.20
2018-01-23T12:10:09.362Z,15.30
2018-01-23T12:11:09.355Z,18.90
2018-01-23T12:12:09.365Z,15.60
2018-01-23T12:13:09.724Z,20.40
2018-01-23T12:14:09.415Z,17.80
2018-01-23T12:15:09.409Z,18.80
2018-01-23T12:16:09.421Z,18.40
2018-01-23T12:17:10.131Z,16.30
2018-01-23T12:18:09.450Z,17.70
2018-01-23T12:19:09.467Z,15.60
2018-01-23T12:20:09.632Z,14.30
2018-01-23T12:21:09.492Z,16.60
2018-01-23T12:22:09.517Z,17.10
2018-01-23T12:23:09.521Z,14.70
2018-01-23T12:24:09.537Z,17.70
2018-01-23T12:25:10.269Z,13.70
2018-01-23T12:26:09.565Z,13.20
2018-01-23T12:27:09.579Z,13.20
2018-01-23T12:28:09.593Z,14.20
2018-01-23T12:29:09.609Z,14.50
2018-01-23T12:30:09.625Z,11.30
2018-01-23T12:31:09.648Z,13.40
2018-01-23T12:32:09.672Z,15.90
2018-01-23T12:33:09.684Z,13.30
2018-01-23T12:34:09.679Z,14.20
2018-01-23T12:35:09.700Z,12.20
2018-01-23T12:36:09.761Z,10.70
2018-01-23T12:37:09.728Z,12.20
2018-01-23T12:38:09.740Z,13.00
2018-01-23T12:39:09.757Z,13.70
2018-01-23T12:40:09.771Z,8.20
2018-01-23T12:41:09.790Z,12.80
2018-01-23T12:42:09.805Z,11.70
2018-01-23T12:43:09.811Z,12.20
2018-01-23T12:44:09.827Z,12.90
2018-01-23T12:45:09.846Z,12.50
2018-01-23T12:46:10.021Z,10.50
2018-01-23T12:47:09.879Z,13.80
2018-01-23T12:48:09.888Z,14.50
2018-01-23T12:49:09.908Z,13.40
2018-01-23T12:50:09.918Z,10.80
2018-01-23T12:51:09.931Z,12.90
2018-01-23T12:52:09.945Z,11.40
2018-01-23T12:53:09.957Z,11.70
2018-01-23T12:54:09.979Z,10.40
2018-01-23T12:55:10.200Z,15.70